createdAt,value
2023-03-03T00:01:26.305Z,54.54
2023-03-03T00:03:55.546Z,54.59
2023-03-03T00:06:25.561Z,54.50
2023-03-03T00:08:55.027Z,54.46
2023-03-03T00:11:22.777Z,54.77
2023-03-03T00:13:54.695Z,54.79
2023-03-03T00:16:28.357Z,54.56
2023-03-03T00:18:55.806Z,54.41
2023-03-03T00:21:32.522Z,55.01
2023-03-03T00:24:16.060Z,54.82
2023-03-03T00:26:47.565Z,54.74
2023-03-03T00:29:28.805Z,54.78
2023-03-03T00:31:55.957Z,54.84
2023-03-03T00:34:28.205Z,55.22
2023-03-03T00:36:56.636Z,55.42
2023-03-03T00:39:32.247Z,55.60
2023-03-03T00:42:04.442Z,55.46
2023-03-03T00:44:43.821Z,55.55
2023-03-03T00:47:31.174Z,55.94
2023-03-03T00:50:07.580Z,55.62
2023-03-03T00:52:39.911Z,55.35
2023-03-03T00:55:08.167Z,55.30
2023-03-03T00:57:37.754Z,55.22
2023-03-03T01:00:10.490Z,55.17
2023-03-03T01:02:37.444Z,55.29
2023-03-03T01:05:06.781Z,55.42
2023-03-03T01:07:36.062Z,56.25
2023-03-03T01:10:02.928Z,56.16
2023-03-03T01:12:29.815Z,55.94
2023-03-03T01:14:57.817Z,55.78
2023-03-03T01:17:24.696Z,55.99
2023-03-03T01:19:53.713Z,56.60
2023-03-03T01:22:20.583Z,57.39
2023-03-03T01:24:49.710Z,57.31
2023-03-03T01:27:17.621Z,56.92
2023-03-03T01:29:49.873Z,56.85
2023-03-03T01:32:16.760Z,56.95
2023-03-03T01:34:43.584Z,56.92
2023-03-03T01:37:12.460Z,57.14
2023-03-03T01:39:39.217Z,57.66
2023-03-03T01:42:06.145Z,57.22
2023-03-03T01:44:33.236Z,57.56
2023-03-03T01:47:21.805Z,57.92
2023-03-03T01:49:59.920Z,57.51
2023-03-03T01:52:32.714Z,57.78
2023-03-03T01:55:10.246Z,57.83
2023-03-03T01:57:44.311Z,58.15
2023-03-03T02:00:16.407Z,58.10
2023-03-03T02:02:45.015Z,58.30
2023-03-03T02:05:15.286Z,58.15
2023-03-03T02:07:44.191Z,58.17
2023-03-03T02:10:14.112Z,58.30
2023-03-03T02:12:53.800Z,57.58
2023-03-03T02:15:36.167Z,57.70
2023-03-03T02:18:09.691Z,57.40
2023-03-03T02:20:45.872Z,57.21
2023-03-03T02:23:31.447Z,57.09
2023-03-03T02:25:59.298Z,57.04
2023-03-03T02:28:34.539Z,57.05
2023-03-03T02:31:11.004Z,57.36
2023-03-03T02:33:42.253Z,57.83
2023-03-03T02:36:32.428Z,57.72
2023-03-03T02:39:27.236Z,57.94
2023-03-03T02:42:13.410Z,57.71
2023-03-03T02:44:44.695Z,57.31
2023-03-03T02:47:13.642Z,57.53
2023-03-03T02:49:40.487Z,57.40
2023-03-03T02:52:12.165Z,57.49
2023-03-03T02:54:41.620Z,57.94
2023-03-03T02:57:09.463Z,57.93
2023-03-03T02:59:38.341Z,58.06
2023-03-03T03:02:10.468Z,57.74
2023-03-03T03:04:37.382Z,57.97
2023-03-03T03:07:05.117Z,57.93
2023-03-03T03:09:34.349Z,58.04
2023-03-03T03:12:05.418Z,57.96
2023-03-03T03:14:39.690Z,58.15
2023-03-03T03:17:08.852Z,58.22
2023-03-03T03:19:35.772Z,58.04
2023-03-03T03:22:03.090Z,58.07
2023-03-03T03:24:36.022Z,58.06
2023-03-03T03:27:07.101Z,58.17
2023-03-03T03:29:36.107Z,57.91
2023-03-03T03:32:05.283Z,58.06
2023-03-03T03:34:32.376Z,57.84
2023-03-03T03:36:59.974Z,57.64
2023-03-03T03:39:28.379Z,57.55
2023-03-03T03:41:56.075Z,57.00
2023-03-03T03:44:24.410Z,57.11
2023-03-03T03:46:52.101Z,57.13
2023-03-03T03:49:20.936Z,57.20
2023-03-03T03:51:52.517Z,57.30
2023-03-03T03:54:22.956Z,57.15
2023-03-03T03:56:54.517Z,57.37
2023-03-03T03:59:24.389Z,57.26
2023-03-03T04:01:52.068Z,57.67
2023-03-03T04:04:20.711Z,57.54
2023-03-03T04:06:47.982Z,57.47
2023-03-03T04:09:15.283Z,57.53
2023-03-03T04:11:45.759Z,57.31
2023-03-03T04:14:13.756Z,57.42
2023-03-03T04:16:43.134Z,57.50
2023-03-03T04:19:12.602Z,57.62
2023-03-03T04:21:42.087Z,57.53
2023-03-03T04:24:09.074Z,57.68
2023-03-03T04:26:37.547Z,57.66
2023-03-03T04:29:10.988Z,57.43
2023-03-03T04:31:41.197Z,57.35
2023-03-03T04:34:09.758Z,57.55
2023-03-03T04:36:36.982Z,58.01
2023-03-03T04:39:06.336Z,58.31
2023-03-03T04:41:37.929Z,58.23
2023-03-03T04:44:13.906Z,58.07
2023-03-03T04:47:05.610Z,57.81
2023-03-03T04:49:37.129Z,57.91
2023-03-03T04:52:10.411Z,57.85
2023-03-03T04:54:38.350Z,58.23
2023-03-03T04:57:13.438Z,58.23
2023-03-03T04:59:43.636Z,58.36
2023-03-03T05:02:16.991Z,58.68
2023-03-03T05:04:52.005Z,58.44
2023-03-03T05:07:28.992Z,58.35
2023-03-03T05:09:55.760Z,58.40
2023-03-03T05:12:32.629Z,58.10
2023-03-03T05:15:15.472Z,57.70
2023-03-03T05:17:55.442Z,57.85
2023-03-03T05:20:29.611Z,58.04
2023-03-03T05:23:01.737Z,57.86
2023-03-03T05:25:36.592Z,57.84
2023-03-03T05:28:06.972Z,57.88
2023-03-03T05:30:36.800Z,57.67
2023-03-03T05:33:06.897Z,57.80
2023-03-03T05:35:37.182Z,57.87
2023-03-03T05:38:09.663Z,58.30
2023-03-03T05:40:43.928Z,58.14
2023-03-03T05:43:16.075Z,58.22
2023-03-03T05:45:43.035Z,58.13
2023-03-03T05:48:10.445Z,58.38
2023-03-03T05:50:46.507Z,58.25
2023-03-03T05:53:22.449Z,58.20
2023-03-03T05:55:54.050Z,57.96
2023-03-03T05:58:25.466Z,58.22
2023-03-03T06:00:54.442Z,58.01
2023-03-03T06:03:21.349Z,57.76
2023-03-03T06:05:56.891Z,57.91
2023-03-03T06:08:24.555Z,57.58
2023-03-03T06:10:56.218Z,57.68
2023-03-03T06:13:27.225Z,57.73
2023-03-03T06:15:57.034Z,57.79
2023-03-03T06:18:31.815Z,57.58
2023-03-03T06:21:03.614Z,57.67
2023-03-03T06:23:32.162Z,57.69
2023-03-03T06:26:04.964Z,57.79
2023-03-03T06:28:44.499Z,57.45
2023-03-03T06:31:14.056Z,57.24
2023-03-03T06:33:47.478Z,57.11
2023-03-03T06:36:23.534Z,56.87
2023-03-03T06:39:01.107Z,57.12
2023-03-03T06:41:33.647Z,56.82
2023-03-03T06:44:06.121Z,57.29
2023-03-03T06:46:36.843Z,57.11
2023-03-03T06:49:09.741Z,57.00
2023-03-03T06:51:46.621Z,56.94
2023-03-03T06:54:38.726Z,56.60
2023-03-03T06:57:37.994Z,56.76
2023-03-03T07:00:31.128Z,56.84
2023-03-03T07:03:04.825Z,57.71
2023-03-03T07:05:35.109Z,57.47
2023-03-03T07:08:15.239Z,56.80
2023-03-03T07:10:44.669Z,56.75
2023-03-03T07:13:24.736Z,56.30
2023-03-03T07:16:04.020Z,55.51
2023-03-03T07:18:56.114Z,55.73
2023-03-03T07:21:41.592Z,55.72
2023-03-03T07:24:32.537Z,55.62
2023-03-03T07:27:31.068Z,55.61
2023-03-03T07:30:19.211Z,55.49
2023-03-03T07:33:02.644Z,55.64
2023-03-03T07:35:50.028Z,55.56
2023-03-03T07:38:27.158Z,55.66
2023-03-03T07:41:05.932Z,55.67
2023-03-03T07:43:58.897Z,55.43
2023-03-03T07:46:46.752Z,55.29
2023-03-03T07:49:37.109Z,54.18
2023-03-03T07:52:30.870Z,54.60
2023-03-03T07:55:25.688Z,54.46
2023-03-03T07:58:02.798Z,53.82
2023-03-03T08:00:35.815Z,54.31
2023-03-03T08:03:26.735Z,53.69
2023-03-03T08:05:59.395Z,54.07
2023-03-03T08:08:46.443Z,53.92
2023-03-03T08:11:18.512Z,53.43
2023-03-03T08:13:50.404Z,53.66
2023-03-03T08:16:44.692Z,53.00
2023-03-03T08:19:13.532Z,53.07
2023-03-03T08:21:42.583Z,53.11
2023-03-03T08:24:10.663Z,52.80
2023-03-03T08:26:38.507Z,52.81
2023-03-03T08:29:05.228Z,52.49
2023-03-03T08:31:41.161Z,52.72
2023-03-03T08:34:16.352Z,52.93
2023-03-03T08:36:43.577Z,53.27
2023-03-03T08:39:13.450Z,53.62
2023-03-03T08:41:48.626Z,53.68
2023-03-03T08:44:20.122Z,53.25
2023-03-03T08:46:51.862Z,52.84
2023-03-03T08:49:20.789Z,53.44
2023-03-03T08:51:48.608Z,53.31
2023-03-03T08:54:21.227Z,53.26
2023-03-03T08:56:48.003Z,52.95
2023-03-03T08:59:17.438Z,52.88
2023-03-03T09:01:46.818Z,52.32
2023-03-03T09:04:20.598Z,52.62
2023-03-03T09:06:48.555Z,52.60
2023-03-03T09:09:17.946Z,52.09
2023-03-03T09:11:48.159Z,51.41
2023-03-03T09:14:17.577Z,51.98
2023-03-03T09:16:57.413Z,51.61
2023-03-03T09:19:30.863Z,51.90
2023-03-03T09:22:12.058Z,51.96
2023-03-03T09:24:39.009Z,51.81
2023-03-03T09:27:25.607Z,51.68
2023-03-03T09:29:57.789Z,51.85
2023-03-03T09:32:33.869Z,51.90
2023-03-03T09:35:21.420Z,51.83
2023-03-03T09:37:50.598Z,51.27
2023-03-03T09:40:42.640Z,51.50
2023-03-03T09:43:14.302Z,51.10
2023-03-03T09:46:07.410Z,51.13
2023-03-03T09:48:49.052Z,50.99
2023-03-03T09:51:26.881Z,50.82
2023-03-03T09:54:08.002Z,50.58
2023-03-03T09:56:42.443Z,50.56
2023-03-03T09:59:40.288Z,49.52
2023-03-03T10:02:38.378Z,48.71
2023-03-03T10:05:20.187Z,49.51
2023-03-03T10:07:55.927Z,47.71
2023-03-03T10:10:45.274Z,47.83
2023-03-03T10:13:30.885Z,48.32
2023-03-03T10:16:29.057Z,48.38
2023-03-03T10:19:03.187Z,48.77
2023-03-03T10:21:43.577Z,47.86
2023-03-03T10:24:35.015Z,48.41
2023-03-03T10:27:14.380Z,47.46
2023-03-03T10:29:59.390Z,47.86
2023-03-03T10:32:35.796Z,48.56
2023-03-03T10:35:12.029Z,46.04
2023-03-03T10:37:57.169Z,45.60
2023-03-03T10:40:47.403Z,44.80
2023-03-03T10:43:32.875Z,45.54
2023-03-03T10:46:20.139Z,43.79
2023-03-03T10:49:16.857Z,44.41
2023-03-03T10:52:02.549Z,44.49
2023-03-03T10:54:55.186Z,44.90
2023-03-03T10:57:42.165Z,43.03
2023-03-03T11:00:26.363Z,43.54
2023-03-03T11:03:11.905Z,44.22
2023-03-03T11:05:57.857Z,42.63
2023-03-03T11:08:30.407Z,42.16
2023-03-03T11:11:20.830Z,42.95
2023-03-03T11:13:50.026Z,41.80
2023-03-03T11:16:32.920Z,41.39
2023-03-03T11:19:32.486Z,39.08
2023-03-03T11:22:03.651Z,39.34
2023-03-03T11:24:51.565Z,37.91
2023-03-03T11:27:28.576Z,38.94
2023-03-03T11:30:08.316Z,41.58
2023-03-03T11:32:45.343Z,40.35
2023-03-03T11:35:23.160Z,40.98
2023-03-03T11:38:15.573Z,40.19
2023-03-03T11:40:49.061Z,40.06
2023-03-03T11:43:36.643Z,39.32
2023-03-03T11:46:10.337Z,40.16
2023-03-03T11:48:49.815Z,39.80
2023-03-03T11:51:43.605Z,40.16
2023-03-03T11:54:17.998Z,39.62
2023-03-03T11:56:46.645Z,40.40
2023-03-03T11:59:32.747Z,40.02
2023-03-03T12:02:28.611Z,39.19
2023-03-03T12:05:34.049Z,40.26
2023-03-03T12:08:28.963Z,40.21
2023-03-03T12:11:13.059Z,39.99
2023-03-03T12:13:54.746Z,38.96
2023-03-03T12:16:29.964Z,37.20
2023-03-03T12:19:20.445Z,35.52
2023-03-03T12:22:18.713Z,35.34
2023-03-03T12:25:13.199Z,34.94
2023-03-03T12:27:54.097Z,35.68
2023-03-03T12:30:26.906Z,33.65
2023-03-03T12:33:03.920Z,34.54
2023-03-03T12:35:36.878Z,35.17
2023-03-03T12:38:14.985Z,34.77
2023-03-03T12:40:52.176Z,36.30
2023-03-03T12:43:46.256Z,36.96
2023-03-03T12:46:16.034Z,38.22
2023-03-03T12:48:45.159Z,38.45
2023-03-03T12:51:31.629Z,38.35
2023-03-03T12:54:00.664Z,39.01
2023-03-03T12:57:29.226Z,38.80
2023-03-03T13:00:19.246Z,38.40
2023-03-03T13:03:03.736Z,38.05
2023-03-03T13:05:45.875Z,37.53
2023-03-03T13:08:43.118Z,37.19
2023-03-03T13:11:42.594Z,31.76
2023-03-03T13:14:26.246Z,31.49
2023-03-03T13:17:02.807Z,32.17
2023-03-03T13:19:38.462Z,32.58
2023-03-03T13:22:22.159Z,31.53
2023-03-03T13:24:58.008Z,30.54
2023-03-03T13:27:28.232Z,31.76
2023-03-03T13:30:26.658Z,32.28
2023-03-03T13:32:56.318Z,33.11
2023-03-03T13:35:29.293Z,32.17
2023-03-03T13:37:59.725Z,32.91
2023-03-03T13:40:31.008Z,33.01
2023-03-03T13:43:04.391Z,31.65
2023-03-03T13:45:57.593Z,29.73
2023-03-03T13:48:45.401Z,31.09
2023-03-03T13:51:35.149Z,30.15
2023-03-03T13:54:19.276Z,30.31
2023-03-03T13:57:10.781Z,30.93
2023-03-03T13:59:58.286Z,32.23
2023-03-03T14:02:43.979Z,33.23
2023-03-03T14:05:44.660Z,32.79
2023-03-03T14:08:29.965Z,33.44
2023-03-03T14:11:27.549Z,32.74
2023-03-03T14:14:18.138Z,32.46
2023-03-03T14:16:54.670Z,31.97
2023-03-03T14:19:27.546Z,33.01
2023-03-03T14:22:16.922Z,32.44
2023-03-03T14:25:09.773Z,31.88
2023-03-03T14:27:48.700Z,31.27
2023-03-03T14:30:36.282Z,30.84
2023-03-03T14:33:12.354Z,31.98
2023-03-03T14:35:40.345Z,31.21
2023-03-03T14:38:18.941Z,29.32
2023-03-03T14:40:58.301Z,30.28
2023-03-03T14:43:27.573Z,30.07
2023-03-03T14:45:58.870Z,30.66
2023-03-03T14:48:32.828Z,30.29
2023-03-03T14:51:15.604Z,31.66
2023-03-03T14:53:46.247Z,32.01
2023-03-03T14:56:23.568Z,31.56
2023-03-03T14:58:56.328Z,31.51
2023-03-03T15:01:40.977Z,30.81
2023-03-03T15:04:20.105Z,31.33
2023-03-03T15:06:51.553Z,29.84
2023-03-03T15:09:25.005Z,29.74
2023-03-03T15:11:53.680Z,30.92
2023-03-03T15:14:37.735Z,29.64
2023-03-03T15:17:37.088Z,30.43
2023-03-03T15:20:12.655Z,31.97
2023-03-03T15:22:55.702Z,32.27
2023-03-03T15:25:42.001Z,32.29
2023-03-03T15:28:40.333Z,32.37
2023-03-03T15:31:38.353Z,32.52
2023-03-03T15:34:32.417Z,32.42
2023-03-03T15:37:10.940Z,33.18
2023-03-03T15:39:43.618Z,33.78
2023-03-03T15:42:27.395Z,34.20
2023-03-03T15:45:26.901Z,33.02
2023-03-03T15:48:19.639Z,32.32
2023-03-03T15:51:11.187Z,32.56
2023-03-03T15:54:23.057Z,31.53
2023-03-03T15:57:18.771Z,31.84
2023-03-03T15:59:50.953Z,30.87
2023-03-03T16:02:25.727Z,32.61
2023-03-03T16:05:06.666Z,31.81
2023-03-03T16:07:54.866Z,32.46
2023-03-03T16:10:35.183Z,32.28
2023-03-03T16:13:33.779Z,32.46
2023-03-03T16:16:02.970Z,33.17
2023-03-03T16:19:07.863Z,33.78
2023-03-03T16:22:08.197Z,34.27
2023-03-03T16:24:59.894Z,34.74
2023-03-03T16:27:50.655Z,35.25
2023-03-03T16:30:23.649Z,35.12
2023-03-03T16:33:19.914Z,35.84
2023-03-03T16:35:56.304Z,36.21
2023-03-03T16:38:33.935Z,36.08
2023-03-03T16:41:08.853Z,36.57
2023-03-03T16:44:09.430Z,36.71
2023-03-03T16:46:45.184Z,37.54
2023-03-03T16:49:23.448Z,38.02
2023-03-03T16:51:58.498Z,37.65
2023-03-03T16:54:30.333Z,37.79
2023-03-03T16:57:21.337Z,38.15
2023-03-03T17:00:06.907Z,38.07
2023-03-03T17:02:55.296Z,38.50
2023-03-03T17:05:44.871Z,38.27
2023-03-03T17:08:20.821Z,38.23
2023-03-03T17:10:50.931Z,38.37
2023-03-03T17:13:19.899Z,38.44
2023-03-03T17:15:53.540Z,38.43
2023-03-03T17:18:45.258Z,38.95
2023-03-03T17:21:29.795Z,39.27
2023-03-03T17:24:15.499Z,38.76
2023-03-03T17:26:52.947Z,39.00
2023-03-03T17:29:38.587Z,39.04
2023-03-03T17:32:42.747Z,39.16
2023-03-03T17:35:42.057Z,39.91
2023-03-03T17:38:34.057Z,40.07
2023-03-03T17:41:32.849Z,40.19
2023-03-03T17:44:21.079Z,40.47
2023-03-03T17:46:49.434Z,41.10
2023-03-03T17:49:41.496Z,40.91
2023-03-03T17:52:28.873Z,41.26
2023-03-03T17:55:07.287Z,41.68
2023-03-03T17:57:52.804Z,41.05
2023-03-03T18:01:15.331Z,41.05
2023-03-03T18:03:51.517Z,41.51
2023-03-03T18:07:06.103Z,40.94
2023-03-03T18:10:03.865Z,41.16
2023-03-03T18:12:45.917Z,41.95
2023-03-03T18:15:37.578Z,42.51
2023-03-03T18:18:27.473Z,42.37
2023-03-03T18:21:02.807Z,42.22
2023-03-03T18:23:44.405Z,42.08
2023-03-03T18:26:38.690Z,41.87
2023-03-03T18:29:11.430Z,41.91
2023-03-03T18:32:03.737Z,41.99
2023-03-03T18:34:40.528Z,42.02
2023-03-03T18:37:29.176Z,42.00
2023-03-03T18:40:02.354Z,42.46
2023-03-03T18:42:43.431Z,41.70
2023-03-03T18:45:33.149Z,42.08
2023-03-03T18:48:13.877Z,42.14
2023-03-03T18:50:48.605Z,41.79
2023-03-03T18:53:15.566Z,42.13
2023-03-03T18:56:00.065Z,42.32
2023-03-03T18:58:27.569Z,42.72
2023-03-03T19:01:00.429Z,42.61
2023-03-03T19:04:14.142Z,42.26
2023-03-03T19:06:43.861Z,42.43
2023-03-03T19:09:23.026Z,42.27
2023-03-03T19:11:58.501Z,42.57
2023-03-03T19:14:29.691Z,42.15
2023-03-03T19:16:58.887Z,42.09
2023-03-03T19:19:37.898Z,42.40
2023-03-03T19:22:19.897Z,42.34
2023-03-03T19:25:08.231Z,42.18
2023-03-03T19:27:44.338Z,41.94
2023-03-03T19:30:36.932Z,41.91
2023-03-03T19:33:24.030Z,41.79
2023-03-03T19:36:19.976Z,41.87
2023-03-03T19:39:12.241Z,41.86
2023-03-03T19:42:04.804Z,41.98
2023-03-03T19:44:44.334Z,41.96
2023-03-03T19:47:34.315Z,42.13
2023-03-03T19:50:45.677Z,42.45
2023-03-03T19:53:18.094Z,41.99
2023-03-03T19:56:03.559Z,41.91
2023-03-03T19:58:55.983Z,42.08
2023-03-03T20:01:34.322Z,41.94
2023-03-03T20:04:04.173Z,42.10
2023-03-03T20:06:54.369Z,42.25
2023-03-03T20:09:41.049Z,42.08
2023-03-03T20:12:13.016Z,42.02
2023-03-03T20:14:46.316Z,42.26
2023-03-03T20:17:32.275Z,42.64
2023-03-03T20:20:27.424Z,42.70
2023-03-03T20:23:24.010Z,43.01
2023-03-03T20:25:57.842Z,43.04
2023-03-03T20:28:57.652Z,42.88
2023-03-03T20:31:33.501Z,43.26
2023-03-03T20:34:35.728Z,43.44
2023-03-03T20:37:13.857Z,43.13
2023-03-03T20:40:07.658Z,42.93
2023-03-03T20:43:08.894Z,42.98
2023-03-03T20:46:09.864Z,43.06
2023-03-03T20:48:46.949Z,42.67
2023-03-03T20:51:13.686Z,43.02
2023-03-03T20:53:49.375Z,42.94
2023-03-03T20:56:34.279Z,42.90
2023-03-03T20:59:28.562Z,42.64
2023-03-03T21:02:16.671Z,42.87
2023-03-03T21:04:43.621Z,42.71
2023-03-03T21:07:24.175Z,42.85
2023-03-03T21:09:51.064Z,42.96
2023-03-03T21:12:38.734Z,43.18
2023-03-03T21:15:22.600Z,43.17
2023-03-03T21:17:51.904Z,43.27
2023-03-03T21:20:29.105Z,43.17
2023-03-03T21:22:59.903Z,43.19
2023-03-03T21:25:44.129Z,43.38
2023-03-03T21:28:17.187Z,43.08
2023-03-03T21:31:06.706Z,43.33
2023-03-03T21:33:55.601Z,43.44
2023-03-03T21:36:25.558Z,43.35
2023-03-03T21:38:53.873Z,43.34
2023-03-03T21:41:23.060Z,43.25
2023-03-03T21:43:52.331Z,43.09
2023-03-03T21:46:27.245Z,43.37
2023-03-03T21:48:56.728Z,43.59
2023-03-03T21:51:24.965Z,43.99
2023-03-03T21:53:55.505Z,43.80
2023-03-03T21:56:22.230Z,43.81
2023-03-03T21:58:51.777Z,43.79
2023-03-03T22:01:18.414Z,44.11
2023-03-03T22:03:45.366Z,44.01
2023-03-03T22:06:12.485Z,43.93
2023-03-03T22:08:39.320Z,44.26
2023-03-03T22:11:06.083Z,44.35
2023-03-03T22:13:32.908Z,44.28
2023-03-03T22:15:59.692Z,44.53
2023-03-03T22:18:26.489Z,44.58
2023-03-03T22:20:55.491Z,44.69
2023-03-03T22:23:22.443Z,44.60
2023-03-03T22:25:49.291Z,44.50
2023-03-03T22:28:18.372Z,44.43
2023-03-03T22:30:49.980Z,44.44
2023-03-03T22:33:16.778Z,44.66
2023-03-03T22:35:43.928Z,44.63
2023-03-03T22:38:12.892Z,45.22
2023-03-03T22:40:44.817Z,44.94
2023-03-03T22:43:16.297Z,44.80
2023-03-03T22:45:45.400Z,44.25
2023-03-03T22:48:14.639Z,44.50
2023-03-03T22:50:45.581Z,44.45
2023-03-03T22:53:12.343Z,44.88
2023-03-03T22:55:39.171Z,45.24
2023-03-03T22:58:09.310Z,45.07
2023-03-03T23:00:38.532Z,45.19
2023-03-03T23:03:11.999Z,45.38
2023-03-03T23:05:39.026Z,45.37
2023-03-03T23:08:12.122Z,45.01
2023-03-03T23:10:39.016Z,45.06
2023-03-03T23:13:05.799Z,45.13
2023-03-03T23:15:33.214Z,44.67
2023-03-03T23:18:02.151Z,45.51
2023-03-03T23:20:31.833Z,45.73
2023-03-03T23:22:59.092Z,45.50
2023-03-03T23:25:30.638Z,47.06
2023-03-03T23:27:57.953Z,46.70
2023-03-03T23:30:27.207Z,46.46
2023-03-03T23:32:54.265Z,46.29
2023-03-03T23:35:21.214Z,46.32
2023-03-03T23:37:50.844Z,46.33
2023-03-03T23:40:18.278Z,46.54
2023-03-03T23:42:45.207Z,46.19
2023-03-03T23:45:14.843Z,46.51
2023-03-03T23:47:41.997Z,46.74
2023-03-03T23:50:14.378Z,46.73
2023-03-03T23:52:44.362Z,46.84
2023-03-03T23:55:13.484Z,46.66
2023-03-03T23:57:40.299Z,46.48
